ADDS METAR Data INFO
IDs: Format: Raw Decoded Include TAF

Data at: 2346 UTC 15 Dec 2017

KAXS 152335Z AUTO 18006KT 10SM CLR 11/M06 A3015 RMK AO2 T01091060
KAXS 152315Z AUTO 19006KT 10SM CLR 12/M06 A3015 RMK AO2 T01241057
KAXS 152255Z AUTO 21008KT 10SM CLR 13/M06 A3015 RMK AO2 T01321057
KAXS 152235Z AUTO 22010KT 10SM CLR 14/M06 A3015 RMK AO2 T01351057
KAXS 152215Z AUTO 22010KT 10SM CLR 14/M05 A3016 RMK AO2 T01361055
KAXS 152155Z AUTO 23011G15KT 10SM CLR 14/M06 A3017 RMK AO2 T01381057
KAXS 152135Z AUTO 23011G14KT 10SM CLR 14/M06 A3018 RMK AO2 T01371057
KAXS 152115Z AUTO 22010KT 10SM CLR 14/M06 A3019 RMK AO2 T01351056
KAXS 152055Z AUTO 22009G15KT 10SM CLR 13/M06 A3019 RMK AO2 6//// T01341058
KAXS 152035Z AUTO 25006KT 10SM CLR 13/M06 A3020 RMK AO2 T01281063
KAXS 152015Z AUTO 25009KT 10SM CLR 13/M06 A3021 RMK AO2 T01251063
KAXS 151955Z AUTO 25010KT 10SM CLR 12/M06 A3021 RMK AO2 T01231061
KAXS 151910Z AUTO 24007KT 10SM CLR 11/M05 A3025 RMK AO2 T01101055
KAXS 151855Z AUTO 26008KT 10SM CLR 11/M05 A3026 RMK AO2 T01061053
KAXS 151835Z AUTO 25006KT 10SM CLR 10/M05 A3028 RMK AO2 T01011054
KAXS 151815Z AUTO 25003KT 10SM CLR 10/M05 A3029 RMK AO2 T00961046
KAXS 151755Z AUTO 27004KT 10SM CLR 09/M04 A3030 RMK AO2 T00861037 10086 21030
KAXS 151735Z AUTO 27005KT 10SM CLR 08/M03 A3031 RMK AO2 T00781030
KAXS 151715Z AUTO 00000KT 10SM CLR 07/M03 A3032 RMK AO2 T00661031
KAXS 151655Z AUTO 00000KT 10SM CLR 06/M03 A3033 RMK AO2 T00561028
KAXS 151635Z AUTO 31003KT 10SM CLR 04/M03 A3034 RMK AO2 T00411030
KAXS 151615Z AUTO 30003KT 10SM CLR 03/M03 A3035 RMK AO2 T00281033
KAXS 151555Z AUTO 30004KT 10SM CLR 02/M03 A3035 RMK AO2 T00171034
KAXS 151535Z AUTO 31005KT 10SM CLR 01/M04 A3036 RMK AO2 T00061036
KAXS 151515Z AUTO 32003KT 10SM CLR 00/M04 A3035 RMK AO2 T00001041
KAXS 151455Z AUTO 31005KT 10SM CLR 00/M04 A3035 RMK AO2 T10021039
KAXS 151435Z AUTO 32004KT 10SM CLR M01/M04 A3035 RMK AO2 T10111045
KAXS 151415Z AUTO 35005KT 10SM CLR M03/M05 A3034 RMK AO2 T10301055
KAXS 151355Z AUTO 34005KT 10SM CLR M02/M05 A3034 RMK AO2 T10251053
KAXS 151335Z AUTO 36007KT 10SM CLR M02/M05 A3034 RMK AO2 T10251054
KAXS 151315Z AUTO 36007KT 10SM CLR M02/M05 A3034 RMK AO2 T10231052
KAXS 151255Z AUTO 36007KT 10SM CLR M02/M05 A3034 RMK AO2 T10201049
KAXS 151235Z AUTO 36009KT 10SM CLR M02/M05 A3034 RMK AO2 T10221050
KAXS 151215Z AUTO 36008KT 10SM CLR M02/M05 A3033 RMK AO2 T10231050
KAXS 151155Z AUTO 36007KT 10SM CLR M02/M05 A3032 RMK AO2 T10251052 10031 21030
KAXS 151135Z AUTO 36007KT 10SM CLR M02/M05 A3031 RMK AO2 T10211049
KAXS 151115Z AUTO 36008KT 10SM CLR M03/M05 A3032 RMK AO2 T10281054
KAXS 151055Z AUTO 36006KT 10SM CLR M02/M05 A3032 RMK AO2 T10211051
KAXS 151035Z AUTO 35007KT 10SM CLR M02/M05 A3032 RMK AO2 T10191049
KAXS 151015Z AUTO 35008KT 10SM CLR M01/M04 A3032 RMK AO2 T10081040
KAXS 150955Z AUTO 36007KT 10SM CLR M02/M05 A3032 RMK AO2 T10161046
KAXS 150935Z AUTO 36007KT 10SM CLR M01/M04 A3032 RMK AO2 T10121045
KAXS 150915Z AUTO 35008KT 10SM CLR M01/M04 A3031 RMK AO2 T10061041
KAXS 150855Z AUTO 35008KT 10SM CLR 00/M04 A3032 RMK AO2 T00001040
KAXS 150835Z AUTO 35008KT 10SM CLR 00/M04 A3032 RMK AO2 T00001041
KAXS 150815Z AUTO 34008KT 10SM CLR 00/M04 A3031 RMK AO2 T10021042
KAXS 150755Z AUTO 35006KT 10SM CLR 00/M05 A3030 RMK AO2 T10021046
KAXS 150735Z AUTO 35007KT 10SM CLR 00/M04 A3030 RMK AO2 T00001045
KAXS 150715Z AUTO 33006KT 10SM CLR 01/M04 A3030 RMK AO2 T00141042
KAXS 150655Z AUTO 35007KT 10SM CLR 01/M04 A3030 RMK AO2 T00111042
KAXS 150635Z AUTO 35007KT 10SM CLR 01/M04 A3029 RMK AO2 T00071043
KAXS 150615Z AUTO 35008KT 10SM CLR 02/M03 A3029 RMK AO2 T00231035
KAXS 150555Z AUTO 35009KT 10SM CLR 03/M03 A3028 RMK AO2 T00291030 10070 20013 401260000
KAXS 150535Z AUTO 35006KT 10SM CLR 02/M04 A3028 RMK AO2 T00221037
KAXS 150515Z AUTO 35006KT 10SM CLR 03/M04 A3028 RMK AO2 T00301037
KAXS 150455Z AUTO 35005KT 10SM CLR 03/M04 A3027 RMK AO2 T00301038
KAXS 150435Z AUTO 36005KT 10SM CLR 03/M04 A3026 RMK AO2 T00271045
KAXS 150415Z AUTO 34003KT 10SM CLR 03/M04 A3025 RMK AO2 T00331042
KAXS 150355Z AUTO 29004KT 10SM CLR 04/M05 A3024 RMK AO2 T00401048
KAXS 150335Z AUTO 29004KT 7SM CLR 04/M05 A3023 RMK AO2 T00421048
KAXS 150315Z AUTO 31003KT 10SM SCT120 05/M05 A3023 RMK AO2 T00461046
KAXS 150255Z AUTO 00000KT 10SM BKN110 04/M05 A3023 RMK AO2 T00401049
KAXS 150235Z AUTO 00000KT 10SM SCT100 04/M05 A3023 RMK AO2 T00371052
KAXS 150215Z AUTO 00000KT 10SM CLR 03/M05 A3022 RMK AO2 T00321054
KAXS 150155Z AUTO 00000KT 10SM CLR 04/M05 A3022 RMK AO2 T00401053
KAXS 150135Z AUTO 33004KT 10SM CLR 05/M05 A3021 RMK AO2 T00461050
KAXS 150115Z AUTO 33003KT 10SM CLR 05/M05 A3021 RMK AO2 T00451053
KAXS 150055Z AUTO 34004KT 10SM CLR 06/M05 A3021 RMK AO2 T00571050
KAXS 150035Z AUTO 36003KT 10SM CLR 06/M05 A3020 RMK AO2 T00631048
KAXS 150015Z AUTO 35005KT 10SM CLR 07/M05 A3019 RMK AO2 T00701046
KAXS 142355Z AUTO 35007KT 10SM CLR 07/M04 A3018 RMK AO2 T00681044 10126 20068
KAXS 142335Z AUTO 35007KT 7SM CLR 08/M04 A3018 RMK AO2 T00841038
KAXS 142315Z AUTO 36007KT 10SM CLR 10/M04 A3018 RMK AO2 T01011041
KAXS 142255Z AUTO 36010KT 10SM CLR 11/M04 A3017 RMK AO2 T01121042
KAXS 142235Z AUTO 34009KT 10SM CLR 12/M04 A3017 RMK AO2 T01171045
KAXS 142215Z AUTO 34009KT 10SM CLR 12/M04 A3016 RMK AO2 T01201045
KAXS 142155Z AUTO 36011KT 10SM SCT055 12/M04 A3016 RMK AO2 T01221045
KAXS 142135Z AUTO 35011KT 10SM SCT055 13/M04 A3016 RMK AO2 T01261041
KAXS 142115Z AUTO 01011KT 10SM SCT055 12/M04 A3016 RMK AO2 T01231042
KAXS 142055Z AUTO 36014KT 10SM CLR 12/M04 A3016 RMK AO2 T01221043
KAXS 142035Z AUTO 02013G16KT 10SM CLR 12/M05 A3016 RMK AO2 T01201046
KAXS 142015Z AUTO 35012G17KT 10SM CLR 12/M04 A3016 RMK AO2 T01201043
KAXS 141955Z AUTO 01012KT 10SM SCT060 12/M04 A3017 RMK AO2 T01201042
KAXS 141935Z AUTO 02015KT 10SM CLR 12/M04 A3017 RMK AO2 T01211041
KAXS 141915Z AUTO 35012G18KT 10SM CLR 12/M04 A3017 RMK AO2 T01171038
KAXS 141855Z AUTO 01009G15KT 10SM SCT070 12/M04 A3018 RMK AO2 T01161038
KAXS 141835Z AUTO 36013G18KT 10SM OVC070 11/M04 A3020 RMK AO2 T01111036
KAXS 141815Z AUTO 02010G16KT 10SM BKN070 12/M03 A3021 RMK AO2 T01201035
KAXS 141755Z AUTO 01011KT 10SM CLR 11/M03 A3021 RMK AO2 T01121032 10113 20000
KAXS 141735Z AUTO 02010G15KT 10SM CLR 11/M03 A3022 RMK AO2 T01121030
KAXS 141715Z AUTO 01010KT 10SM CLR 11/M03 A3022 RMK AO2 T01091029
KAXS 141655Z AUTO 02009KT 10SM CLR 10/M03 A3022 RMK AO2 T01041032
KAXS 141635Z AUTO 02010KT 10SM CLR 10/M03 A3022 RMK AO2 T00981034
KAXS 141615Z AUTO 02013KT 10SM CLR 09/M03 A3021 RMK AO2 T00921035
KAXS 141555Z AUTO 02015KT 10SM CLR 09/M03 A3020 RMK AO2 T00901033
KAXS 141535Z AUTO 36006KT 10SM CLR 06/M03 A3019 RMK AO2 T00621027
KAXS 141515Z AUTO 34007KT 10SM CLR 05/M03 A3018 RMK AO2 T00481031
KAXS 141455Z AUTO 35006KT 10SM CLR 03/M04 A3017 RMK AO2 T00311037
KAXS 141435Z AUTO 35006KT 10SM CLR 01/M04 A3016 RMK AO2 T00131042
KAXS 141415Z AUTO 35007KT 10SM CLR 00/M05 A3015 RMK AO2 T00011047
KAXS 141355Z AUTO 35007KT 10SM CLR 00/M05 A3014 RMK AO2 T00001051
KAXS 141335Z AUTO 33007KT 10SM CLR 00/M05 A3012 RMK AO2 T00001052
KAXS 141315Z AUTO 34006KT 10SM CLR 01/M05 A3011 RMK AO2 T00051052
KAXS 141255Z AUTO 36005KT 10SM CLR 00/M05 A3010 RMK AO2 T00031052
KAXS 141235Z AUTO 35006KT 10SM CLR 01/M05 A3009 RMK AO2 T00141050
KAXS 141215Z AUTO 36008KT 10SM CLR 03/M05 A3009 RMK AO2 T00251046
KAXS 141155Z AUTO 36008KT 10SM CLR 03/M04 A3008 RMK AO2 T00301045 10072 20017